This is the latest recevied weather packets stored in our database for station/object I4GOS-3. If no packets are shown the sender has not sent any weather packets the latest 10 day(s).
| Time | Temp. | Humidity | Pressure | Rain* | Wind** | Luminosity | Snow |
|---|---|---|---|---|---|---|---|
| 1777972354 | 17.22° C | 73% | 1014.4 hPa | 0 mm | - | - | - |
| 1777972054 | 16.67° C | 74% | 1014.5 hPa | 1.02 mm | - | - | - |
| 1777971754 | 16.67° C | 74% | 1014.4 hPa | 1.02 mm | - | - | - |
| 1777971450 | 16.67° C | 74% | 1014.4 hPa | 1.02 mm | - | - | - |
| 1777971150 | 16.11° C | 74% | 1014.4 hPa | 1.02 mm | - | - | - |
| 1777970849 | 16.11° C | 74% | 1014.5 hPa | 1.27 mm | - | - | - |
| 1777970549 | 16.11° C | 74% | 1014.5 hPa | 1.27 mm | - | - | - |
| 1777970249 | 16.11° C | 73% | 1014.5 hPa | 1.27 mm | - | - | - |
| 1777969947 | 15.56° C | 73% | 1014.6 hPa | 1.78 mm | - | - | - |
| 1777969647 | 15.56° C | 72% | 1014.5 hPa | 1.78 mm | - | - | - |
| 1777969347 | 15.56° C | 72% | 1014.5 hPa | 1.78 mm | - | - | - |
| 1777969047 | 15° C | 72% | 1014.5 hPa | 2.03 mm | - | - | - |
| 1777968747 | 15° C | 71% | 1014.6 hPa | 2.03 mm | - | - | - |
| 1777968446 | 15° C | 71% | 1014.6 hPa | 1.78 mm | - | - | - |
| 1777968142 | 15° C | 72% | 1014.6 hPa | 1.78 mm | - | - | - |
| 1777967838 | 15° C | 72% | 1014.7 hPa | 2.29 mm | - | - | - |
| 1777967529 | 15° C | 73% | 1014.7 hPa | 2.29 mm | - | - | - |
| 1777967229 | 15° C | 73% | 1014.7 hPa | 2.29 mm | - | - | - |
| 1777966928 | 15° C | 73% | 1014.8 hPa | 1.52 mm | - | - | - |
| 1777966628 | 14.44° C | 73% | 1014.8 hPa | 1.78 mm | - | - | - |
| 1777966328 | 14.44° C | 74% | 1014.7 hPa | 1.78 mm | - | - | - |
| 1777966027 | 14.44° C | 74% | 1014.7 hPa | 2.03 mm | - | - | - |
| 1777965723 | 14.44° C | 74% | 1014.7 hPa | 2.29 mm | - | - | - |
| 1777965423 | 14.44° C | 74% | 1014.7 hPa | 2.29 mm | - | - | - |
| 1777965123 | 15° C | 74% | 1014.7 hPa | 2.03 mm | - | - | - |
* Rain latest hour (hover to see other rain measurements)
** Current wind speed in m/s (hover to see current wind gust speed)